Time;durP1;ratioP1;P1;durP2;ratioP2;P2;SDS_P1;SDS_P2;PMS_P1;PMS_P2;Temp;Humidity;BMP_temperature;BMP_pressure;BME280_temperature;BME280_humidity;BME280_pressure;Samples;Min_cycle;Max_cycle;Signal;HPM_P1;HPM_P2
2022/05/09 00:01:58;;;;;;;;;16.33;16.33;;;;;;;;5054291;28;45394;-75
2022/05/09 00:04:23;;;;;;;;;19.67;16.33;;;;;;;;5056803;28;45339;-74
2022/05/09 00:06:48;;;;;;;;;15.00;14.00;;;;;;;;5055194;28;45363;-74
2022/05/09 00:09:15;;;;;;;;;16.33;14.33;;;;;;;;5057506;28;46527;-74
2022/05/09 00:11:40;;;;;;;;;13.33;13.33;;;;;;;;5056479;28;45472;-74
2022/05/09 00:14:05;;;;;;;;;14.67;14.67;;;;;;;;5055619;28;45505;-75
2022/05/09 00:16:34;;;;;;;;;17.67;13.00;;;;;;;;5058667;28;46025;-74
2022/05/09 00:19:09;;;;;;;;;14.00;14.00;;;;;;;;5058150;28;46218;-74
2022/05/09 00:21:36;;;;;;;;;14.67;13.33;;;;;;;;5058499;28;45379;-74
2022/05/09 00:24:01;;;;;;;;;15.33;12.33;;;;;;;;5056645;28;45320;-74
2022/05/09 00:26:32;;;;;;;;;16.00;11.00;;;;;;;;5058314;28;45474;-74
2022/05/09 00:28:58;;;;;;;;;15.67;12.00;;;;;;;;5056546;28;47702;-74
2022/05/09 00:31:24;;;;;;;;;13.00;11.00;;;;;;;;5052926;28;45442;-74
2022/05/09 00:33:49;;;;;;;;;10.33;10.33;;;;;;;;5058246;28;45448;-75
2022/05/09 00:36:16;;;;;;;;;10.33;10.33;;;;;;;;5050420;28;46588;-74
2022/05/09 00:38:42;;;;;;;;;11.00;8.33;;;;;;;;5050233;28;45400;-74
2022/05/09 00:43:52;;;;;;;;;12.33;10.67;;;;;;;;5058393;28;45475;-74
2022/05/09 00:46:17;;;;;;;;;13.33;12.00;;;;;;;;5052479;28;45794;-74
2022/05/09 00:48:42;;;;;;;;;7.33;7.33;;;;;;;;5054820;28;46524;-74
2022/05/09 00:51:08;;;;;;;;;9.00;8.33;;;;;;;;5051548;28;45295;-74
2022/05/09 00:53:35;;;;;;;;;9.00;9.00;;;;;;;;5059652;28;45326;-74
2022/05/09 00:56:02;;;;;;;;;9.00;9.00;;;;;;;;5053385;28;45483;-74
2022/05/09 00:58:33;;;;;;;;;12.00;10.00;;;;;;;;5058573;28;47219;-74
2022/05/09 01:01:00;;;;;;;;;8.00;8.00;;;;;;;;5053248;28;45368;-74
2022/05/09 01:03:32;;;;;;;;;9.67;8.00;;;;;;;;5059725;28;45338;-74
2022/05/09 01:05:58;;;;;;;;;11.00;8.33;;;;;;;;5051797;28;45477;-73
2022/05/09 01:08:24;;;;;;;;;8.00;7.33;;;;;;;;5056587;28;45444;-74
2022/05/09 01:10:49;;;;;;;;;10.33;9.00;;;;;;;;5054464;28;45384;-74
2022/05/09 01:13:16;;;;;;;;;8.00;8.00;;;;;;;;5089814;27;45360;-74
2022/05/09 01:15:43;;;;;;;;;11.00;9.33;;;;;;;;5056169;28;45436;-74
2022/05/09 01:18:10;;;;;;;;;9.00;9.00;;;;;;;;5057039;28;45349;-74
2022/05/09 01:20:35;;;;;;;;;9.33;9.00;;;;;;;;5056477;28;45417;-74
2022/05/09 01:23:03;;;;;;;;;9.67;8.33;;;;;;;;5057989;28;45311;-74
2022/05/09 01:25:29;;;;;;;;;9.00;9.00;;;;;;;;5050337;28;45467;-74
2022/05/09 01:27:55;;;;;;;;;8.00;8.00;;;;;;;;5055223;28;46219;-74
2022/05/09 01:30:44;;;;;;;;;11.33;7.67;;;;;;;;5051798;28;45289;-74
2022/05/09 01:33:14;;;;;;;;;7.00;7.00;;;;;;;;5058587;28;45315;-74
2022/05/09 01:35:39;;;;;;;;;11.00;10.00;;;;;;;;5050229;28;45961;-74
2022/05/09 01:38:18;;;;;;;;;10.00;9.00;;;;;;;;5058520;28;46099;-74
2022/05/09 01:40:44;;;;;;;;;10.00;8.00;;;;;;;;5053429;28;45292;-74
2022/05/09 01:43:09;;;;;;;;;9.33;8.33;;;;;;;;5059070;28;45283;-74
2022/05/09 01:45:34;;;;;;;;;8.67;8.00;;;;;;;;5052130;28;45425;-74
2022/05/09 01:51:03;;;;;;;;;8.33;7.00;;;;;;;;5029775;28;45290;-74
2022/05/09 01:53:29;;;;;;;;;7.67;6.33;;;;;;;;5035252;28;45310;-74
2022/05/09 01:55:54;;;;;;;;;10.00;7.33;;;;;;;;5039288;28;45443;-74
2022/05/09 01:58:20;;;;;;;;;11.00;6.33;;;;;;;;5052204;28;46816;-74
2022/05/09 02:00:45;;;;;;;;;10.00;7.33;;;;;;;;5049864;28;45689;-74
2022/05/09 02:03:10;;;;;;;;;9.33;7.00;;;;;;;;5054189;28;45348;-74
2022/05/09 02:05:36;;;;;;;;;8.00;8.00;;;;;;;;5053451;28;45454;-74
2022/05/09 02:08:01;;;;;;;;;8.00;6.00;;;;;;;;5054861;28;46003;-74
2022/05/09 02:10:26;;;;;;;;;11.67;8.33;;;;;;;;5054840;28;45312;-74
2022/05/09 02:12:51;;;;;;;;;8.33;7.00;;;;;;;;5056778;28;45526;-74
2022/05/09 02:15:17;;;;;;;;;9.50;8.25;;;;;;;;5056283;28;45466;-74
2022/05/09 02:17:42;;;;;;;;;9.00;9.00;;;;;;;;5058145;28;45273;-74
2022/05/09 02:20:07;;;;;;;;;15.25;13.75;;;;;;;;5052270;28;45345;-74
2022/05/09 02:22:33;;;;;;;;;15.25;12.25;;;;;;;;5053480;28;45451;-75
2022/05/09 02:24:58;;;;;;;;;14.25;14.25;;;;;;;;5054923;28;45301;-74
2022/05/09 02:27:23;;;;;;;;;14.75;13.50;;;;;;;;5053192;28;45572;-75
2022/05/09 02:29:48;;;;;;;;;17.00;15.25;;;;;;;;5052446;28;45424;-75
2022/05/09 02:32:15;;;;;;;;;14.25;13.75;;;;;;;;5058300;28;45375;-74
2022/05/09 02:34:40;;;;;;;;;15.75;13.75;;;;;;;;5052357;28;46253;-74
2022/05/09 02:37:05;;;;;;;;;17.00;14.25;;;;;;;;5058923;28;45501;-74
2022/05/09 02:39:31;;;;;;;;;14.50;13.00;;;;;;;;5057161;28;45265;-75
2022/05/09 02:41:58;;;;;;;;;14.75;13.25;;;;;;;;5059780;28;45373;-75
2022/05/09 02:44:23;;;;;;;;;15.75;15.75;;;;;;;;5055075;28;46198;-74
2022/05/09 02:46:48;;;;;;;;;16.25;14.00;;;;;;;;5056290;28;45663;-74
2022/05/09 02:49:14;;;;;;;;;19.75;15.50;;;;;;;;5059270;28;45390;-74
2022/05/09 02:51:39;;;;;;;;;16.00;11.00;;;;;;;;5057116;28;45508;-74
2022/05/09 02:54:04;;;;;;;;;20.00;16.75;;;;;;;;5059577;28;45457;-74
2022/05/09 02:56:29;;;;;;;;;15.00;11.50;;;;;;;;5056617;28;45997;-74
2022/05/09 02:58:55;;;;;;;;;17.25;15.75;;;;;;;;5058418;28;45934;-74
2022/05/09 03:01:20;;;;;;;;;13.00;12.00;;;;;;;;5053181;28;45393;-74
2022/05/09 03:06:29;;;;;;;;;13.75;13.75;;;;;;;;5054073;28;45797;-74
2022/05/09 03:08:54;;;;;;;;;15.25;15.00;;;;;;;;5059438;28;45217;-74
2022/05/09 03:11:19;;;;;;;;;16.25;12.50;;;;;;;;5057636;28;45442;-74
2022/05/09 03:13:45;;;;;;;;;13.00;11.50;;;;;;;;5060265;28;45247;-75
2022/05/09 03:16:10;;;;;;;;;13.00;13.00;;;;;;;;5058924;28;48084;-74
2022/05/09 03:18:36;;;;;;;;;13.50;12.00;;;;;;;;5060893;28;45311;-74
2022/05/09 03:21:01;;;;;;;;;17.50;15.50;;;;;;;;5049767;28;45455;-74
2022/05/09 03:23:26;;;;;;;;;12.00;11.75;;;;;;;;5070123;28;47427;-74
2022/05/09 03:25:51;;;;;;;;;10.75;10.75;;;;;;;;5054235;28;45352;-74
2022/05/09 03:28:24;;;;;;;;;14.25;12.25;;;;;;;;5061117;28;45447;-74
2022/05/09 03:30:50;;;;;;;;;16.25;12.00;;;;;;;;5052321;28;45338;-74
2022/05/09 03:33:15;;;;;;;;;13.75;11.50;;;;;;;;5050379;28;45254;-74
2022/05/09 03:35:42;;;;;;;;;14.75;12.50;;;;;;;;5053904;28;46351;-74
2022/05/09 03:38:07;;;;;;;;;16.00;12.75;;;;;;;;5059189;28;45425;-74
2022/05/09 03:40:33;;;;;;;;;21.00;13.00;;;;;;;;5052789;28;45477;-74
2022/05/09 03:42:59;;;;;;;;;11.00;11.00;;;;;;;;5052860;28;45684;-74
2022/05/09 03:45:25;;;;;;;;;10.75;10.00;;;;;;;;5049490;28;47452;-74
2022/05/09 03:47:50;;;;;;;;;15.50;13.00;;;;;;;;5058854;28;45560;-74
2022/05/09 03:50:16;;;;;;;;;10.75;10.75;;;;;;;;5054052;28;45273;-75
2022/05/09 03:52:41;;;;;;;;;11.00;11.00;;;;;;;;5058807;28;46162;-74
2022/05/09 03:55:07;;;;;;;;;15.25;13.75;;;;;;;;5053903;28;47691;-74
2022/05/09 03:57:32;;;;;;;;;15.75;13.00;;;;;;;;5060428;28;45286;-74
2022/05/09 04:00:06;;;;;;;;;17.50;14.25;;;;;;;;5053327;28;45412;-74
2022/05/09 04:02:31;;;;;;;;;15.25;11.25;;;;;;;;5056409;28;46586;-74
2022/05/09 04:04:57;;;;;;;;;15.25;13.00;;;;;;;;5055595;28;45545;-74
2022/05/09 04:07:22;;;;;;;;;15.25;13.75;;;;;;;;5058685;28;46209;-74
2022/05/09 04:09:47;;;;;;;;;19.25;11.75;;;;;;;;5056626;28;45255;-74
2022/05/09 04:12:13;;;;;;;;;14.50;10.50;;;;;;;;5059206;28;45293;-74
2022/05/09 04:17:22;;;;;;;;;13.75;10.75;;;;;;;;5052426;28;45244;-74
2022/05/09 04:19:47;;;;;;;;;12.50;8.00;;;;;;;;5053228;28;45427;-74
2022/05/09 04:22:13;;;;;;;;;16.75;14.00;;;;;;;;5059913;28;45204;-74
2022/05/09 04:24:38;;;;;;;;;16.25;13.00;;;;;;;;5057722;28;45423;-74
2022/05/09 04:27:03;;;;;;;;;15.75;14.25;;;;;;;;5053044;28;45387;-74
2022/05/09 04:29:29;;;;;;;;;13.00;11.00;;;;;;;;5056183;28;45170;-74
2022/05/09 04:31:54;;;;;;;;;13.00;12.00;;;;;;;;5057413;28;45356;-74
2022/05/09 04:34:19;;;;;;;;;14.50;12.50;;;;;;;;5056708;28;45506;-74
2022/05/09 04:36:44;;;;;;;;;15.50;14.50;;;;;;;;5057976;28;45386;-74
2022/05/09 04:39:10;;;;;;;;;15.75;11.00;;;;;;;;5059166;28;45174;-74
2022/05/09 04:41:36;;;;;;;;;12.25;11.25;;;;;;;;5056837;28;45280;-74
2022/05/09 04:44:03;;;;;;;;;13.50;12.00;;;;;;;;5058545;28;46081;-74
2022/05/09 04:46:28;;;;;;;;;18.25;13.25;;;;;;;;5055071;28;45697;-74
2022/05/09 04:48:53;;;;;;;;;13.50;13.50;;;;;;;;5057905;28;45291;-74
2022/05/09 04:51:19;;;;;;;;;14.75;13.50;;;;;;;;5055361;28;45633;-74
2022/05/09 04:53:45;;;;;;;;;14.00;12.00;;;;;;;;5058655;28;46881;-74
2022/05/09 04:56:10;;;;;;;;;17.25;15.50;;;;;;;;5050693;28;45447;-74
2022/05/09 04:58:35;;;;;;;;;16.75;12.50;;;;;;;;5059584;28;45481;-74
2022/05/09 05:01:01;;;;;;;;;17.00;15.25;;;;;;;;5051743;28;45417;-74
2022/05/09 05:03:26;;;;;;;;;15.25;13.75;;;;;;;;5056333;28;46149;-74
2022/05/09 05:05:52;;;;;;;;;15.00;12.75;;;;;;;;5054181;28;45466;-74
2022/05/09 05:08:17;;;;;;;;;13.75;12.25;;;;;;;;5056442;28;45328;-74
2022/05/09 05:10:43;;;;;;;;;10.00;10.00;;;;;;;;5055885;28;45398;-74
2022/05/09 05:13:08;;;;;;;;;15.50;12.00;;;;;;;;5057648;28;45279;-74
2022/05/09 05:15:33;;;;;;;;;15.50;15.50;;;;;;;;5056813;28;47715;-74
2022/05/09 05:17:59;;;;;;;;;15.50;13.50;;;;;;;;5058316;28;45415;-74
2022/05/09 05:20:24;;;;;;;;;16.75;15.50;;;;;;;;5052013;28;45347;-74
2022/05/09 05:22:50;;;;;;;;;12.75;11.75;;;;;;;;5055814;28;46265;-74
2022/05/09 05:25:23;;;;;;;;;16.25;15.50;;;;;;;;5052992;28;45267;-74
2022/05/09 05:27:48;;;;;;;;;17.00;13.75;;;;;;;;5072357;28;45402;-74
2022/05/09 05:30:13;;;;;;;;;17.25;16.25;;;;;;;;5052994;28;45304;-75
2022/05/09 05:32:41;;;;;;;;;18.00;16.00;;;;;;;;5058763;28;45281;-74
2022/05/09 05:35:07;;;;;;;;;16.75;14.00;;;;;;;;5052495;28;45363;-74
2022/05/09 05:37:33;;;;;;;;;15.00;15.00;;;;;;;;5056346;28;45451;-74
2022/05/09 05:39:58;;;;;;;;;20.50;18.50;;;;;;;;5052087;28;45347;-74
2022/05/09 05:42:24;;;;;;;;;19.25;16.75;;;;;;;;5058743;28;45582;-74
2022/05/09 05:44:49;;;;;;;;;17.00;17.00;;;;;;;;5052374;28;45323;-75
2022/05/09 05:47:16;;;;;;;;;21.50;19.00;;;;;;;;5058740;28;45427;-72
2022/05/09 05:49:41;;;;;;;;;16.50;14.50;;;;;;;;5052628;28;46089;-73
2022/05/09 05:52:07;;;;;;;;;21.00;17.00;;;;;;;;5057129;28;45394;-73
2022/05/09 05:54:34;;;;;;;;;23.25;19.50;;;;;;;;5054463;28;45212;-73
2022/05/09 05:57:00;;;;;;;;;19.25;15.50;;;;;;;;5058518;28;45453;-72
2022/05/09 05:59:25;;;;;;;;;20.00;18.00;;;;;;;;5054954;28;45532;-73
2022/05/09 06:01:51;;;;;;;;;18.00;16.50;;;;;;;;5052863;28;46271;-72
2022/05/09 06:04:17;;;;;;;;;17.25;17.25;;;;;;;;5056092;28;45493;-73
2022/05/09 06:06:42;;;;;;;;;19.50;17.00;;;;;;;;5053877;28;45343;-72
2022/05/09 06:09:07;;;;;;;;;16.50;16.50;;;;;;;;5056331;28;45498;-72
2022/05/09 06:11:32;;;;;;;;;22.25;16.50;;;;;;;;5050626;28;46212;-72
2022/05/09 06:13:59;;;;;;;;;23.75;18.75;;;;;;;;5060282;28;45319;-73
2022/05/09 06:16:25;;;;;;;;;21.00;19.50;;;;;;;;5052751;28;45383;-72
2022/05/09 06:18:52;;;;;;;;;23.50;19.75;;;;;;;;5061047;28;45423;-72
2022/05/09 06:21:18;;;;;;;;;16.50;16.50;;;;;;;;5052407;28;46226;-72
2022/05/09 06:23:43;;;;;;;;;21.50;18.75;;;;;;;;5061392;28;45238;-72
2022/05/09 06:26:08;;;;;;;;;21.50;19.00;;;;;;;;5055246;28;45331;-72
2022/05/09 06:28:33;;;;;;;;;26.50;21.25;;;;;;;;5061918;28;45260;-75
2022/05/09 06:30:58;;;;;;;;;18.25;17.75;;;;;;;;5052644;28;45289;-73
2022/05/09 06:33:24;;;;;;;;;21.00;19.00;;;;;;;;5061070;28;45382;-73
2022/05/09 06:35:51;;;;;;;;;20.75;19.75;;;;;;;;5054599;28;45281;-73
2022/05/09 06:38:17;;;;;;;;;24.00;22.00;;;;;;;;5061439;28;45604;-73
2022/05/09 06:40:42;;;;;;;;;26.25;23.25;;;;;;;;5054613;28;46166;-73
2022/05/09 06:43:08;;;;;;;;;21.00;20.25;;;;;;;;5061332;28;45313;-75
2022/05/09 06:45:34;;;;;;;;;30.25;27.50;;;;;;;;5054703;28;45334;-75
2022/05/09 06:47:59;;;;;;;;;22.25;18.50;;;;;;;;5061088;28;45442;-75
2022/05/09 06:50:30;;;;;;;;;21.75;17.50;;;;;;;;5057993;28;46803;-75
2022/05/09 06:52:55;;;;;;;;;24.00;19.25;;;;;;;;5060681;28;45451;-74
2022/05/09 06:55:21;;;;;;;;;23.00;19.75;;;;;;;;5079452;27;45554;-75
2022/05/09 06:57:49;;;;;;;;;17.25;16.50;;;;;;;;5057926;28;45363;-76
2022/05/09 07:00:17;;;;;;;;;21.67;17.00;;;;;;;;5058294;28;45253;-75
2022/05/09 07:02:42;;;;;;;;;22.67;19.33;;;;;;;;5082027;27;45306;-75
2022/05/09 07:05:09;;;;;;;;;21.00;20.33;;;;;;;;5050712;28;45181;-75
2022/05/09 07:07:35;;;;;;;;;23.00;18.67;;;;;;;;5057343;28;45478;-75
2022/05/09 07:10:00;;;;;;;;;21.33;17.00;;;;;;;;5055074;28;47340;-74
2022/05/09 07:12:25;;;;;;;;;16.67;16.67;;;;;;;;5057470;28;45298;-74
2022/05/09 07:14:51;;;;;;;;;23.00;20.33;;;;;;;;5056943;28;45377;-75
2022/05/09 07:17:16;;;;;;;;;23.67;19.33;;;;;;;;5059688;28;45397;-75
2022/05/09 07:19:41;;;;;;;;;19.67;18.00;;;;;;;;5058001;28;45397;-75
2022/05/09 07:22:06;;;;;;;;;24.67;21.67;;;;;;;;5083913;27;46170;-76
2022/05/09 07:24:31;;;;;;;;;15.67;15.67;;;;;;;;5057132;28;45406;-75
2022/05/09 07:26:57;;;;;;;;;16.33;13.33;;;;;;;;5055758;28;46265;-76
2022/05/09 07:29:22;;;;;;;;;23.67;22.00;;;;;;;;5053988;28;45412;-75
2022/05/09 07:31:47;;;;;;;;;27.33;24.00;;;;;;;;5058996;28;45522;-76
2022/05/09 07:34:13;;;;;;;;;22.67;18.00;;;;;;;;5056090;28;45354;-75
2022/05/09 07:36:38;;;;;;;;;22.67;18.00;;;;;;;;5057893;28;45606;-75
2022/05/09 07:39:03;;;;;;;;;20.00;19.00;;;;;;;;5052624;28;47665;-75
2022/05/09 07:41:28;;;;;;;;;25.67;23.67;;;;;;;;5058893;28;45381;-75
2022/05/09 07:43:54;;;;;;;;;25.00;21.00;;;;;;;;5050730;28;45323;-75
2022/05/09 07:46:19;;;;;;;;;19.33;19.33;;;;;;;;5058228;28;45323;-75
2022/05/09 07:48:44;;;;;;;;;17.00;15.33;;;;;;;;5078679;27;47074;-75
2022/05/09 07:51:10;;;;;;;;;23.67;18.33;;;;;;;;5055596;28;45398;-75
2022/05/09 07:53:35;;;;;;;;;17.67;16.67;;;;;;;;5055964;28;45502;-75
2022/05/09 07:56:02;;;;;;;;;19.00;17.67;;;;;;;;5079958;27;46174;-74
2022/05/09 07:58:28;;;;;;;;;25.33;17.67;;;;;;;;5047521;28;46120;-74
2022/05/09 08:00:58;;;;;;;;;26.33;21.67;;;;;;;;5048826;28;45427;-74
2022/05/09 08:03:24;;;;;;;;;18.67;15.00;;;;;;;;5057652;28;45474;-74
2022/05/09 08:05:50;;;;;;;;;14.67;14.67;;;;;;;;5032789;27;1270984;-73
2022/05/09 08:08:15;;;;;;;;;19.67;17.00;;;;;;;;5057394;28;45446;-72
2022/05/09 08:10:42;;;;;;;;;17.00;17.00;;;;;;;;5054902;28;45432;-72
2022/05/09 08:13:08;;;;;;;;;21.67;18.33;;;;;;;;5058648;28;46278;-72
2022/05/09 08:15:34;;;;;;;;;15.33;14.67;;;;;;;;5060636;28;45335;-73
2022/05/09 08:18:01;;;;;;;;;20.67;18.33;;;;;;;;5063599;28;45231;-73
2022/05/09 08:20:26;;;;;;;;;21.67;18.67;;;;;;;;5056354;28;45561;-73
2022/05/09 08:23:02;;;;;;;;;24.00;17.00;;;;;;;;5061574;28;45295;-72
2022/05/09 08:25:27;;;;;;;;;18.00;17.33;;;;;;;;5056507;28;45904;-73
2022/05/09 08:27:53;;;;;;;;;16.00;15.33;;;;;;;;5060438;28;46030;-73
2022/05/09 08:30:18;;;;;;;;;20.67;16.67;;;;;;;;5053664;28;45329;-73
2022/05/09 08:32:43;;;;;;;;;15.33;13.67;;;;;;;;5059152;28;45760;-73
2022/05/09 08:35:09;;;;;;;;;16.67;16.67;;;;;;;;5055397;28;45471;-72
2022/05/09 08:37:35;;;;;;;;;17.33;13.33;;;;;;;;5059729;28;45327;-72
2022/05/09 08:40:00;;;;;;;;;18.33;14.33;;;;;;;;5051023;28;45378;-73
2022/05/09 08:42:30;;;;;;;;;16.00;14.33;;;;;;;;5057354;28;45569;-72
2022/05/09 08:45:11;;;;;;;;;14.67;14.67;;;;;;;;5053652;28;45269;-72
2022/05/09 08:47:37;;;;;;;;;14.33;14.00;;;;;;;;5053240;28;46313;-72
2022/05/09 08:50:03;;;;;;;;;16.33;14.67;;;;;;;;5053354;28;45428;-72
2022/05/09 08:52:36;;;;;;;;;18.00;15.00;;;;;;;;5058409;28;45317;-72
2022/05/09 08:55:02;;;;;;;;;17.00;14.25;;;;;;;;5053131;28;46319;-73
2022/05/09 08:57:34;;;;;;;;;15.50;14.00;;;;;;;;5059725;28;45544;-73
2022/05/09 09:00:06;;;;;;;;;14.25;13.00;;;;;;;;5057126;28;45474;-73
2022/05/09 09:02:31;;;;;;;;;16.25;15.50;;;;;;;;5059038;28;45205;-72
2022/05/09 09:04:58;;;;;;;;;18.00;17.00;;;;;;;;5057121;28;45511;-73
2022/05/09 09:07:42;;;;;;;;;19.00;18.75;;;;;;;;5058624;28;45806;-73
2022/05/09 09:10:17;;;;;;;;;14.50;13.50;;;;;;;;5057069;28;45521;-73
2022/05/09 09:12:57;;;;;;;;;16.00;13.75;;;;;;;;5058681;28;45348;-74
2022/05/09 09:15:41;;;;;;;;;18.00;15.25;;;;;;;;5052196;28;47115;-73
2022/05/09 09:18:25;;;;;;;;;15.75;14.00;;;;;;;;5058441;28;45500;-73
2022/05/09 09:20:59;;;;;;;;;18.00;15.25;;;;;;;;5055979;28;45493;-73
2022/05/09 09:23:28;;;;;;;;;17.50;15.00;;;;;;;;5052940;28;45352;-73
2022/05/09 09:26:11;;;;;;;;;14.50;13.75;;;;;;;;5056960;28;45719;-73
2022/05/09 09:28:49;;;;;;;;;18.00;15.00;;;;;;;;5057927;28;46343;-74
2022/05/09 09:31:27;;;;;;;;;18.75;15.75;;;;;;;;5053613;28;45320;-74
2022/05/09 09:34:06;;;;;;;;;15.25;14.00;;;;;;;;5058074;28;45299;-72
2022/05/09 09:36:34;;;;;;;;;15.50;14.75;;;;;;;;5047617;28;47342;-73
2022/05/09 09:39:20;;;;;;;;;16.25;14.75;;;;;;;;5041708;28;45447;-72
2022/05/09 09:41:46;;;;;;;;;17.25;16.25;;;;;;;;5055641;28;45348;-72
2022/05/09 09:44:19;;;;;;;;;17.00;14.75;;;;;;;;5056814;28;45417;-72
2022/05/09 09:47:04;;;;;;;;;18.75;15.00;;;;;;;;5051565;28;46537;-73
2022/05/09 09:49:35;;;;;;;;;18.00;13.25;;;;;;;;5052355;28;45725;-73
2022/05/09 09:52:00;;;;;;;;;17.00;15.00;;;;;;;;5054973;28;45395;-73
2022/05/09 09:54:27;;;;;;;;;15.25;14.00;;;;;;;;5055699;28;45395;-73
2022/05/09 09:56:53;;;;;;;;;17.75;15.25;;;;;;;;5055102;28;45319;-72
2022/05/09 09:59:38;;;;;;;;;18.50;16.00;;;;;;;;5056441;28;45529;-73
2022/05/09 10:02:16;;;;;;;;;17.75;16.00;;;;;;;;5053014;28;45248;-72
2022/05/09 10:04:42;;;;;;;;;13.50;13.50;;;;;;;;5055067;28;45438;-72
2022/05/09 10:07:12;;;;;;;;;12.75;12.50;;;;;;;;5057801;28;45338;-72
2022/05/09 10:09:40;;;;;;;;;13.00;11.25;;;;;;;;5078540;27;46477;-72
2022/05/09 10:12:24;;;;;;;;;16.00;13.20;;;;;;;;5057780;28;45516;-72
2022/05/09 10:14:50;;;;;;;;;12.25;11.25;;;;;;;;5055759;28;45584;-72
2022/05/09 10:17:17;;;;;;;;;10.75;10.75;;;;;;;;5057728;28;45448;-71
2022/05/09 10:19:42;;;;;;;;;14.25;11.50;;;;;;;;5052213;28;46462;-72
2022/05/09 10:25:15;;;;;;;;;13.20;11.60;;;;;;;;5054009;28;45376;-73
2022/05/09 10:27:40;;;;;;;;;14.00;10.75;;;;;;;;5054351;28;45394;-73
2022/05/09 10:30:08;;;;;;;;;11.75;11.50;;;;;;;;5051809;28;48238;-72
2022/05/09 10:32:45;;;;;;;;;16.00;14.20;;;;;;;;5057768;28;45243;-73
2022/05/09 10:35:14;;;;;;;;;12.00;12.00;;;;;;;;5051712;28;45351;-72
2022/05/09 10:37:40;;;;;;;;;16.00;14.00;;;;;;;;5057432;28;45525;-72
2022/05/09 10:40:07;;;;;;;;;13.20;11.20;;;;;;;;5051623;28;45398;-72
2022/05/09 10:42:43;;;;;;;;;13.40;12.80;;;;;;;;5057375;28;45507;-72
2022/05/09 10:45:15;;;;;;;;;11.60;10.00;;;;;;;;5051628;28;45693;-72
2022/05/09 10:47:41;;;;;;;;;12.40;11.20;;;;;;;;5056375;28;46952;-72
2022/05/09 10:50:09;;;;;;;;;10.75;9.75;;;;;;;;5051264;28;45456;-72
2022/05/09 10:52:48;;;;;;;;;16.60;14.60;;;;;;;;5056556;28;45332;-72
2022/05/09 10:55:13;;;;;;;;;11.60;11.00;;;;;;;;5054760;28;45387;-72
2022/05/09 10:57:41;;;;;;;;;13.50;12.25;;;;;;;;5058416;28;45307;-72
2022/05/09 11:00:09;;;;;;;;;11.20;10.20;;;;;;;;5056485;27;47014;-73
2022/05/09 11:02:41;;;;;;;;;9.60;9.60;;;;;;;;5057886;28;45318;-72
2022/05/09 11:05:07;;;;;;;;;9.40;8.80;;;;;;;;5057209;28;45362;-72
2022/05/09 11:07:59;;;;;;;;;11.00;10.25;;;;;;;;5059204;28;45449;-72
2022/05/09 11:10:37;;;;;;;;;10.00;8.60;;;;;;;;5058581;28;45489;-73
2022/05/09 11:13:02;;;;;;;;;12.60;12.20;;;;;;;;5060545;28;45332;-72
2022/05/09 11:15:43;;;;;;;;;10.00;10.00;;;;;;;;5054195;28;45247;-73
2022/05/09 11:18:20;;;;;;;;;12.40;9.80;;;;;;;;5059640;28;45620;-73
2022/05/09 11:21:04;;;;;;;;;12.40;11.80;;;;;;;;5053789;28;47365;-72
2022/05/09 11:23:39;;;;;;;;;12.40;11.00;;;;;;;;5059587;28;45304;-73
2022/05/09 11:26:10;;;;;;;;;12.80;12.40;;;;;;;;5056383;28;45612;-73
2022/05/09 11:28:41;;;;;;;;;13.60;13.40;;;;;;;;5059693;28;45573;-73
2022/05/09 11:31:12;;;;;;;;;14.20;13.00;;;;;;;;5057487;28;46299;-72
2022/05/09 11:33:58;;;;;;;;;8.40;8.40;;;;;;;;5059831;28;45485;-73
2022/05/09 11:36:23;;;;;;;;;12.20;11.00;;;;;;;;5058747;28;45408;-73
2022/05/09 11:38:58;;;;;;;;;10.25;10.25;;;;;;;;5058538;28;46078;-73
2022/05/09 11:41:26;;;;;;;;;11.00;11.00;;;;;;;;5061574;28;48102;-73
2022/05/09 11:43:52;;;;;;;;;10.00;9.20;;;;;;;;5058374;28;45365;-74
2022/05/09 11:46:20;;;;;;;;;14.50;11.25;;;;;;;;5058899;28;45378;-73
2022/05/09 11:48:45;;;;;;;;;10.80;10.80;;;;;;;;5059006;28;45497;-73
2022/05/09 11:51:23;;;;;;;;;13.00;13.00;;;;;;;;5057481;28;46294;-73
2022/05/09 11:53:52;;;;;;;;;13.80;11.60;;;;;;;;5054776;28;45406;-73
2022/05/09 11:56:18;;;;;;;;;13.20;13.20;;;;;;;;5054940;28;45481;-72
2022/05/09 11:58:44;;;;;;;;;11.25;11.25;;;;;;;;5056211;28;45792;-72
2022/05/09 12:01:10;;;;;;;;;14.00;12.40;;;;;;;;5053626;28;45390;-73
2022/05/09 12:03:41;;;;;;;;;14.25;13.25;;;;;;;;5059534;28;45293;-73
2022/05/09 12:06:27;;;;;;;;;11.60;11.20;;;;;;;;5051871;28;45288;-74
2022/05/09 12:08:53;;;;;;;;;14.20;14.20;;;;;;;;5047204;28;45738;-74
2022/05/09 12:11:19;;;;;;;;;11.80;11.00;;;;;;;;5056471;28;45547;-74
2022/05/09 12:13:44;;;;;;;;;10.00;10.00;;;;;;;;5058315;28;45260;-74
2022/05/09 12:16:29;;;;;;;;;11.25;10.50;;;;;;;;5057072;28;45482;-74
2022/05/09 12:18:59;;;;;;;;;10.60;10.60;;;;;;;;5058493;28;45276;-76
2022/05/09 12:21:25;;;;;;;;;15.00;13.60;;;;;;;;5058120;28;45974;-75
2022/05/09 12:24:07;;;;;;;;;12.40;12.40;;;;;;;;5080027;27;45851;-76
2022/05/09 12:26:34;;;;;;;;;10.00;10.00;;;;;;;;5058321;28;45584;-75
2022/05/09 12:29:12;;;;;;;;;11.00;9.60;;;;;;;;5077583;27;45650;-75
2022/05/09 12:31:48;;;;;;;;;10.60;9.80;;;;;;;;5055977;28;45636;-75
2022/05/09 12:34:14;;;;;;;;;12.60;12.60;;;;;;;;5057265;28;45339;-75
2022/05/09 12:36:40;;;;;;;;;12.60;12.00;;;;;;;;5058819;28;45263;-76
2022/05/09 12:39:10;;;;;;;;;10.50;10.50;;;;;;;;5075612;27;46255;-75
2022/05/09 12:41:52;;;;;;;;;12.00;12.00;;;;;;;;5056181;28;47370;-75
2022/05/09 12:44:23;;;;;;;;;12.00;12.00;;;;;;;;5056586;28;45402;-75
2022/05/09 12:46:54;;;;;;;;;15.20;11.00;;;;;;;;5055020;28;45461;-75
2022/05/09 12:49:21;;;;;;;;;11.80;10.00;;;;;;;;5057390;28;45490;-75
2022/05/09 12:51:48;;;;;;;;;10.20;10.20;;;;;;;;5058119;28;46632;-75
2022/05/09 12:54:15;;;;;;;;;17.80;15.00;;;;;;;;5056576;28;45452;-76
2022/05/09 12:57:00;;;;;;;;;14.20;12.20;;;;;;;;5057526;28;45442;-74
2022/05/09 12:59:27;;;;;;;;;11.00;11.00;;;;;;;;5084174;27;47414;-74
2022/05/09 13:01:56;;;;;;;;;12.60;12.00;;;;;;;;5054792;28;45464;-75
2022/05/09 13:04:22;;;;;;;;;13.20;12.80;;;;;;;;5053453;28;45758;-74
2022/05/09 13:06:49;;;;;;;;;15.25;14.25;;;;;;;;5054815;28;45295;-74
2022/05/09 13:09:25;;;;;;;;;13.60;12.60;;;;;;;;5057262;28;45439;-72
2022/05/09 13:11:53;;;;;;;;;12.00;12.00;;;;;;;;5055738;28;45505;-73
2022/05/09 13:14:30;;;;;;;;;13.60;13.00;;;;;;;;5056799;28;45511;-72
2022/05/09 13:16:56;;;;;;;;;15.80;12.60;;;;;;;;5057041;28;45562;-76
2022/05/09 13:19:22;;;;;;;;;17.60;14.60;;;;;;;;5054853;28;47906;-75
2022/05/09 13:21:49;;;;;;;;;14.75;12.75;;;;;;;;5051174;28;45345;-75
2022/05/09 13:24:23;;;;;;;;;13.00;12.20;;;;;;;;5057133;28;45573;-74
2022/05/09 13:26:50;;;;;;;;;13.80;12.40;;;;;;;;5049827;28;45376;-75
2022/05/09 13:29:22;;;;;;;;;13.60;12.20;;;;;;;;5053294;28;45323;-76
2022/05/09 13:31:48;;;;;;;;;13.40;12.80;;;;;;;;5054310;28;45371;-75
2022/05/09 13:34:34;;;;;;;;;17.60;15.00;;;;;;;;5056549;28;45225;-75
2022/05/09 13:37:01;;;;;;;;;17.20;13.80;;;;;;;;5055684;28;45454;-75
2022/05/09 13:39:29;;;;;;;;;12.80;12.80;;;;;;;;5056340;28;45354;-75
2022/05/09 13:41:55;;;;;;;;;14.00;11.80;;;;;;;;5054779;28;45565;-74
2022/05/09 13:44:21;;;;;;;;;14.00;13.00;;;;;;;;5054940;28;45823;-74
2022/05/09 13:46:47;;;;;;;;;15.25;12.50;;;;;;;;5054203;28;45345;-75
2022/05/09 13:49:14;;;;;;;;;14.20;13.20;;;;;;;;5056434;28;45581;-74
2022/05/09 13:51:55;;;;;;;;;11.00;11.00;;;;;;;;5056471;28;47311;-74
2022/05/09 13:54:22;;;;;;;;;13.80;13.40;;;;;;;;5056727;28;45405;-75
2022/05/09 13:56:47;;;;;;;;;11.40;11.20;;;;;;;;5055276;28;45260;-75
2022/05/09 13:59:13;;;;;;;;;9.50;9.25;;;;;;;;5048189;28;45402;-74
2022/05/09 14:01:41;;;;;;;;;14.80;12.80;;;;;;;;5056777;28;47458;-75
2022/05/09 14:04:07;;;;;;;;;15.20;13.40;;;;;;;;5056383;27;45287;-73
2022/05/09 14:06:34;;;;;;;;;14.75;13.00;;;;;;;;5056551;28;45477;-74
2022/05/09 14:09:03;;;;;;;;;14.60;14.40;;;;;;;;5057473;28;45325;-73
2022/05/09 14:11:30;;;;;;;;;15.20;13.20;;;;;;;;5048615;28;45518;-73
2022/05/09 14:13:56;;;;;;;;;13.60;12.20;;;;;;;;5057365;28;45418;-73
2022/05/09 14:16:44;;;;;;;;;14.00;13.50;;;;;;;;5052101;28;45362;-74
2022/05/09 14:19:24;;;;;;;;;29.25;26.25;;;;;;;;5056906;28;45318;-74
2022/05/09 14:21:57;;;;;;;;;11.60;11.20;;;;;;;;5051504;28;45422;-74
2022/05/09 14:24:24;;;;;;;;;18.00;17.00;;;;;;;;5055312;28;45426;-74
2022/05/09 14:29:40;;;;;;;;;13.20;11.60;;;;;;;;5054352;28;45455;-73
2022/05/09 14:32:09;;;;;;;;;13.60;13.60;;;;;;;;5057271;28;46555;-73
2022/05/09 14:34:34;;;;;;;;;12.40;11.80;;;;;;;;5056264;28;45365;-74
2022/05/09 14:37:19;;;;;;;;;12.25;12.25;;;;;;;;5060951;28;45254;-74
2022/05/09 14:39:45;;;;;;;;;11.00;10.40;;;;;;;;5055289;28;46128;-74
2022/05/09 14:42:11;;;;;;;;;13.00;11.40;;;;;;;;5060278;28;45456;-73